TimeCST,TemperatureF,Dew PointF,Humidity,Sea Level PressureIn,VisibilityMPH,Wind Direction,Wind SpeedMPH,Gust SpeedMPH,PrecipitationIn,Events,Conditions,WindDirDegrees,DateUTC
12:14 AM,60.8,59.0,94,29.89,8.0,NE,3.5,-,N/A,,Overcast,50,2013-02-23 06:14:00
12:33 AM,60.8,59.0,94,29.89,5.0,North,4.6,-,N/A,,Overcast,360,2013-02-23 06:33:00
12:56 AM,59.0,57.9,96,29.88,2.5,North,8.1,-,N/A,,Overcast,10,2013-02-23 06:56:00
1:22 AM,59.0,57.2,94,29.88,1.8,North,6.9,-,N/A,,Overcast,10,2013-02-23 07:22:00
1:46 AM,57.2,57.2,100,29.88,2.5,North,4.6,-,N/A,,Overcast,10,2013-02-23 07:46:00
1:56 AM,57.9,57.0,97,29.87,2.5,NNE,6.9,-,N/A,,Overcast,20,2013-02-23 07:56:00
2:29 AM,57.2,55.4,94,29.88,3.0,North,12.7,-,0.00,,Overcast,350,2013-02-23 08:29:00
2:56 AM,57.0,55.0,93,29.89,5.0,North,9.2,-,0.02,Rain,Light Rain,350,2013-02-23 08:56:00
3:14 AM,57.2,55.4,94,29.89,8.0,North,9.2,-,N/A,,Overcast,10,2013-02-23 09:14:00
3:22 AM,57.2,55.4,94,29.88,10.0,NNE,10.4,-,N/A,,Overcast,30,2013-02-23 09:22:00
3:31 AM,57.2,55.4,94,29.88,10.0,ENE,6.9,-,0.00,Rain-Thunderstorm,Light Thunderstorms and Rain,60,2013-02-23 09:31:00
3:56 AM,57.9,55.9,93,29.88,8.0,North,5.8,-,0.02,Rain-Thunderstorm,Thunderstorms and Rain,350,2013-02-23 09:56:00
4:07 AM,57.2,55.4,94,29.88,2.5,NNW,6.9,-,0.11,Rain-Thunderstorm,Heavy Thunderstorms and Rain,330,2013-02-23 10:07:00
4:29 AM,57.2,55.4,94,29.89,4.0,Calm,Calm,-,0.33,Rain-Thunderstorm,Heavy Rain,0,2013-02-23 10:29:00
4:41 AM,57.2,55.4,94,29.87,6.0,ENE,3.5,-,0.37,Rain,Rain,70,2013-02-23 10:41:00
4:48 AM,57.2,55.4,94,29.90,6.0,Calm,Calm,-,0.38,Rain,Rain,0,2013-02-23 10:48:00
4:56 AM,57.0,55.9,96,29.90,5.0,NNW,5.8,-,0.40,Rain,Heavy Rain,330,2013-02-23 10:56:00
5:19 AM,57.2,55.4,94,29.89,6.0,North,9.2,-,0.02,Rain,Rain,360,2013-02-23 11:19:00
5:45 AM,55.4,53.6,94,29.91,10.0,North,9.2,-,0.07,Rain-Thunderstorm,Light Rain,360,2013-02-23 11:45:00
5:50 AM,55.4,53.6,94,29.91,7.0,North,9.2,-,0.07,Rain-Thunderstorm,Thunderstorms and Rain,360,2013-02-23 11:50:00
5:56 AM,55.9,53.1,90,29.92,7.0,NNE,6.9,-,0.07,Rain-Thunderstorm,Light Thunderstorms and Rain,20,2013-02-23 11:56:00
6:49 AM,55.4,53.6,94,29.93,7.0,North,10.4,-,0.05,Rain,Light Rain,360,2013-02-23 12:49:00
6:56 AM,55.0,53.1,93,29.92,7.0,NNE,6.9,-,0.05,Rain,Light Rain,30,2013-02-23 12:56:00
7:56 AM,55.0,53.1,93,29.92,8.0,NNE,10.4,-,0.00,,Overcast,30,2013-02-23 13:56:00
8:56 AM,55.9,53.1,90,29.94,10.0,NNE,10.4,-,N/A,,Overcast,20,2013-02-23 14:56:00
9:56 AM,57.0,54.0,89,29.92,10.0,NE,8.1,-,N/A,,Overcast,40,2013-02-23 15:56:00
10:56 AM,57.9,54.0,87,29.91,10.0,North,9.2,-,N/A,,Overcast,10,2013-02-23 16:56:00
11:56 AM,59.0,54.0,83,29.92,10.0,North,9.2,-,N/A,,Overcast,350,2013-02-23 17:56:00
12:50 PM,59.0,53.6,82,29.91,10.0,North,6.9,-,N/A,Thunderstorm,Thunderstorm,350,2013-02-23 18:50:00
12:56 PM,59.0,54.0,83,29.90,10.0,North,5.8,-,N/A,Thunderstorm,Thunderstorm,350,2013-02-23 18:56:00
1:34 PM,57.2,53.6,88,29.92,4.0,North,3.5,-,0.05,Rain,Heavy Rain,350,2013-02-23 19:34:00
1:56 PM,57.9,55.0,90,29.91,3.0,Calm,Calm,-,0.09,Rain,Rain,0,2013-02-23 19:56:00
2:18 PM,57.2,55.4,94,29.89,6.0,ENE,4.6,-,0.04,Rain,Rain,70,2013-02-23 20:18:00
2:56 PM,57.0,55.0,93,29.82,6.0,ESE,15.0,-,0.09,Rain,Light Rain,120,2013-02-23 20:56:00
3:10 PM,57.2,55.4,94,29.78,5.0,ESE,17.3,-,0.01,Rain,Light Rain,110,2013-02-23 21:10:00
3:30 PM,57.2,55.4,94,29.80,8.0,East,4.6,-,0.01,,Mostly Cloudy,80,2013-02-23 21:30:00
3:56 PM,57.9,55.9,93,29.83,7.0,NNW,6.9,-,0.01,,Overcast,330,2013-02-23 21:56:00
4:56 PM,57.0,55.0,93,29.86,8.0,North,6.9,-,N/A,,Overcast,350,2013-02-23 22:56:00
5:23 PM,57.2,55.4,94,29.88,10.0,North,4.6,-,N/A,,Overcast,360,2013-02-23 23:23:00
5:56 PM,57.0,55.0,93,29.89,10.0,NNW,5.8,-,N/A,,Overcast,340,2013-02-23 23:56:00
6:37 PM,57.2,55.4,94,29.91,9.0,NW,3.5,-,N/A,,Scattered Clouds,320,2013-02-24 00:37:00
6:56 PM,57.0,54.0,89,29.91,9.0,Calm,Calm,-,N/A,,Mostly Cloudy,0,2013-02-24 00:56:00
7:07 PM,57.2,55.4,94,29.92,9.0,Calm,Calm,-,N/A,,Overcast,0,2013-02-24 01:07:00
7:39 PM,57.2,55.4,94,29.92,10.0,NNW,8.1,-,N/A,,Overcast,340,2013-02-24 01:39:00
7:56 PM,57.0,53.1,87,29.92,10.0,NNW,9.2,-,N/A,,Overcast,330,2013-02-24 01:56:00
8:05 PM,57.2,53.6,88,29.93,10.0,NNW,6.9,-,N/A,,Overcast,340,2013-02-24 02:05:00
8:56 PM,55.9,53.1,90,29.94,10.0,NNW,8.1,-,N/A,,Overcast,340,2013-02-24 02:56:00
9:47 PM,55.4,51.8,88,29.96,10.0,North,8.1,-,N/A,,Overcast,360,2013-02-24 03:47:00
9:56 PM,55.0,52.0,89,29.96,10.0,North,9.2,-,N/A,,Overcast,10,2013-02-24 03:56:00
10:27 PM,55.4,51.8,88,29.96,10.0,North,6.9,-,N/A,,Overcast,10,2013-02-24 04:27:00
10:37 PM,55.4,51.8,88,29.97,10.0,North,5.8,-,N/A,,Overcast,10,2013-02-24 04:37:00
10:56 PM,55.0,50.0,83,29.96,10.0,North,9.2,-,N/A,,Overcast,10,2013-02-24 04:56:00
11:30 PM,53.6,50.0,88,29.96,10.0,NNE,8.1,-,N/A,,Overcast,20,2013-02-24 05:30:00
11:56 PM,54.0,50.0,86,29.96,10.0,NNE,6.9,-,N/A,,Overcast,20,2013-02-24 05:56:00